sensor_id;sensor_type;location;lat;lon;timestamp;P1;durP1;ratioP1;P2;durP2;ratioP2
21120;SDS011;12519;43.318;21.898;2024-02-04T00:08:45;95.0;;;65.0;;
21120;SDS011;12519;43.318;21.898;2024-02-04T00:13:21;95.0;;;65.0;;
21120;SDS011;12519;43.318;21.898;2024-02-04T00:17:57;95.0;;;65.0;;
21120;SDS011;12519;43.318;21.898;2024-02-04T00:22:33;95.0;;;65.0;;
21120;SDS011;12519;43.318;21.898;2024-02-04T00:27:09;89.0;;;64.0;;
21120;SDS011;12519;43.318;21.898;2024-02-04T00:31:45;89.0;;;64.0;;
21120;SDS011;12519;43.318;21.898;2024-02-04T00:36:21;83.0;;;64.0;;
21120;SDS011;12519;43.318;21.898;2024-02-04T00:40:57;83.0;;;64.0;;
21120;SDS011;12519;43.318;21.898;2024-02-04T00:45:33;78.0;;;62.0;;
21120;SDS011;12519;43.318;21.898;2024-02-04T00:50:10;78.0;;;62.0;;
21120;SDS011;12519;43.318;21.898;2024-02-04T00:54:46;74.0;;;61.0;;
21120;SDS011;12519;43.318;21.898;2024-02-04T00:59:22;74.0;;;61.0;;
21120;SDS011;12519;43.318;21.898;2024-02-04T01:03:58;74.0;;;61.0;;
21120;SDS011;12519;43.318;21.898;2024-02-04T01:08:34;73.0;;;58.0;;
21120;SDS011;12519;43.318;21.898;2024-02-04T01:13:11;73.0;;;58.0;;
21120;SDS011;12519;43.318;21.898;2024-02-04T01:17:47;72.0;;;54.0;;
21120;SDS011;12519;43.318;21.898;2024-02-04T01:22:23;72.0;;;54.0;;
21120;SDS011;12519;43.318;21.898;2024-02-04T01:26:59;70.0;;;56.0;;
21120;SDS011;12519;43.318;21.898;2024-02-04T01:31:35;70.0;;;56.0;;
21120;SDS011;12519;43.318;21.898;2024-02-04T01:36:12;69.0;;;58.0;;
21120;SDS011;12519;43.318;21.898;2024-02-04T01:40:48;69.0;;;58.0;;
21120;SDS011;12519;43.318;21.898;2024-02-04T01:45:24;68.0;;;54.0;;
21120;SDS011;12519;43.318;21.898;2024-02-04T01:50:03;68.0;;;54.0;;
21120;SDS011;12519;43.318;21.898;2024-02-04T01:54:44;66.0;;;51.0;;
21120;SDS011;12519;43.318;21.898;2024-02-04T01:59:24;66.0;;;51.0;;
21120;SDS011;12519;43.318;21.898;2024-02-04T02:04:01;66.0;;;51.0;;
21120;SDS011;12519;43.318;21.898;2024-02-04T02:08:41;56.0;;;46.0;;
21120;SDS011;12519;43.318;21.898;2024-02-04T02:13:29;56.0;;;46.0;;
21120;SDS011;12519;43.318;21.898;2024-02-04T02:18:31;45.0;;;40.0;;
21120;SDS011;12519;43.318;21.898;2024-02-04T02:23:36;45.0;;;40.0;;
21120;SDS011;12519;43.318;21.898;2024-02-04T02:29:02;42.0;;;38.0;;
21120;SDS011;12519;43.318;21.898;2024-02-04T02:33:39;42.0;;;38.0;;
21120;SDS011;12519;43.318;21.898;2024-02-04T02:38:33;40.0;;;35.0;;
21120;SDS011;12519;43.318;21.898;2024-02-04T02:43:29;40.0;;;35.0;;
21120;SDS011;12519;43.318;21.898;2024-02-04T02:48:11;46.0;;;36.0;;
21120;SDS011;12519;43.318;21.898;2024-02-04T02:52:48;46.0;;;36.0;;
21120;SDS011;12519;43.318;21.898;2024-02-04T02:57:24;51.0;;;36.0;;
21120;SDS011;12519;43.318;21.898;2024-02-04T03:02:00;51.0;;;36.0;;
21120;SDS011;12519;43.318;21.898;2024-02-04T03:06:37;46.0;;;35.0;;
21120;SDS011;12519;43.318;21.898;2024-02-04T03:11:13;46.0;;;35.0;;
21120;SDS011;12519;43.318;21.898;2024-02-04T03:15:49;42.0;;;34.0;;
21120;SDS011;12519;43.318;21.898;2024-02-04T03:20:26;42.0;;;34.0;;
21120;SDS011;12519;43.318;21.898;2024-02-04T03:25:03;48.0;;;39.0;;
21120;SDS011;12519;43.318;21.898;2024-02-04T03:29:42;48.0;;;39.0;;
21120;SDS011;12519;43.318;21.898;2024-02-04T03:34:18;48.0;;;39.0;;
21120;SDS011;12519;43.318;21.898;2024-02-04T03:38:54;54.0;;;44.0;;
21120;SDS011;12519;43.318;21.898;2024-02-04T03:43:30;54.0;;;44.0;;
21120;SDS011;12519;43.318;21.898;2024-02-04T03:48:07;50.0;;;42.0;;
21120;SDS011;12519;43.318;21.898;2024-02-04T03:52:43;50.0;;;42.0;;
21120;SDS011;12519;43.318;21.898;2024-02-04T03:57:19;47.0;;;40.0;;
21120;SDS011;12519;43.318;21.898;2024-02-04T04:01:55;47.0;;;40.0;;
21120;SDS011;12519;43.318;21.898;2024-02-04T04:06:31;48.0;;;38.0;;
21120;SDS011;12519;43.318;21.898;2024-02-04T04:11:10;48.0;;;38.0;;
21120;SDS011;12519;43.318;21.898;2024-02-04T04:15:47;50.0;;;37.0;;
21120;SDS011;12519;43.318;21.898;2024-02-04T04:20:23;50.0;;;37.0;;
21120;SDS011;12519;43.318;21.898;2024-02-04T04:24:59;49.0;;;38.0;;
21120;SDS011;12519;43.318;21.898;2024-02-04T04:29:35;49.0;;;38.0;;
21120;SDS011;12519;43.318;21.898;2024-02-04T04:34:12;49.0;;;38.0;;
21120;SDS011;12519;43.318;21.898;2024-02-04T04:38:49;48.0;;;38.0;;
21120;SDS011;12519;43.318;21.898;2024-02-04T04:43:25;48.0;;;38.0;;
21120;SDS011;12519;43.318;21.898;2024-02-04T04:48:03;44.0;;;36.0;;
21120;SDS011;12519;43.318;21.898;2024-02-04T04:52:42;44.0;;;36.0;;
21120;SDS011;12519;43.318;21.898;2024-02-04T04:57:19;41.0;;;35.0;;
21120;SDS011;12519;43.318;21.898;2024-02-04T05:01:56;41.0;;;35.0;;
21120;SDS011;12519;43.318;21.898;2024-02-04T05:06:32;42.0;;;37.0;;
21120;SDS011;12519;43.318;21.898;2024-02-04T05:11:09;42.0;;;37.0;;
21120;SDS011;12519;43.318;21.898;2024-02-04T05:15:46;42.0;;;39.0;;
21120;SDS011;12519;43.318;21.898;2024-02-04T05:20:24;42.0;;;39.0;;
21120;SDS011;12519;43.318;21.898;2024-02-04T05:25:00;40.0;;;36.0;;
21120;SDS011;12519;43.318;21.898;2024-02-04T05:29:36;40.0;;;36.0;;
21120;SDS011;12519;43.318;21.898;2024-02-04T05:34:13;40.0;;;36.0;;
21120;SDS011;12519;43.318;21.898;2024-02-04T05:38:49;37.0;;;32.0;;
21120;SDS011;12519;43.318;21.898;2024-02-04T05:43:25;37.0;;;32.0;;
21120;SDS011;12519;43.318;21.898;2024-02-04T05:48:01;36.0;;;32.0;;
21120;SDS011;12519;43.318;21.898;2024-02-04T05:52:38;36.0;;;32.0;;
21120;SDS011;12519;43.318;21.898;2024-02-04T05:57:14;34.0;;;32.0;;
21120;SDS011;12519;43.318;21.898;2024-02-04T06:01:50;34.0;;;32.0;;
21120;SDS011;12519;43.318;21.898;2024-02-04T06:06:26;40.0;;;34.0;;
21120;SDS011;12519;43.318;21.898;2024-02-04T06:11:02;40.0;;;34.0;;
21120;SDS011;12519;43.318;21.898;2024-02-04T06:15:39;45.0;;;35.0;;
21120;SDS011;12519;43.318;21.898;2024-02-04T06:20:15;45.0;;;35.0;;
21120;SDS011;12519;43.318;21.898;2024-02-04T06:24:51;45.0;;;35.0;;
21120;SDS011;12519;43.318;21.898;2024-02-04T06:29:28;42.0;;;36.0;;
21120;SDS011;12519;43.318;21.898;2024-02-04T06:34:04;42.0;;;36.0;;
21120;SDS011;12519;43.318;21.898;2024-02-04T06:38:40;38.0;;;36.0;;
21120;SDS011;12519;43.318;21.898;2024-02-04T06:43:21;38.0;;;36.0;;
21120;SDS011;12519;43.318;21.898;2024-02-04T06:47:57;40.0;;;36.0;;
21120;SDS011;12519;43.318;21.898;2024-02-04T06:52:34;40.0;;;36.0;;
21120;SDS011;12519;43.318;21.898;2024-02-04T06:57:10;41.0;;;36.0;;
21120;SDS011;12519;43.318;21.898;2024-02-04T07:01:46;41.0;;;36.0;;
21120;SDS011;12519;43.318;21.898;2024-02-04T07:06:22;41.0;;;34.0;;
21120;SDS011;12519;43.318;21.898;2024-02-04T07:10:59;41.0;;;34.0;;
21120;SDS011;12519;43.318;21.898;2024-02-04T07:15:36;41.0;;;33.0;;
21120;SDS011;12519;43.318;21.898;2024-02-04T07:20:12;41.0;;;33.0;;
21120;SDS011;12519;43.318;21.898;2024-02-04T07:24:49;41.0;;;33.0;;
21120;SDS011;12519;43.318;21.898;2024-02-04T07:29:25;38.0;;;32.0;;
21120;SDS011;12519;43.318;21.898;2024-02-04T07:34:02;38.0;;;32.0;;
21120;SDS011;12519;43.318;21.898;2024-02-04T07:38:39;36.0;;;32.0;;
21120;SDS011;12519;43.318;21.898;2024-02-04T07:43:16;36.0;;;32.0;;
21120;SDS011;12519;43.318;21.898;2024-02-04T07:47:53;38.0;;;32.0;;
21120;SDS011;12519;43.318;21.898;2024-02-04T07:52:30;38.0;;;32.0;;
21120;SDS011;12519;43.318;21.898;2024-02-04T07:57:06;40.0;;;33.0;;
21120;SDS011;12519;43.318;21.898;2024-02-04T08:01:42;40.0;;;33.0;;
21120;SDS011;12519;43.318;21.898;2024-02-04T08:06:18;39.0;;;32.0;;
21120;SDS011;12519;43.318;21.898;2024-02-04T08:10:55;39.0;;;32.0;;
21120;SDS011;12519;43.318;21.898;2024-02-04T08:15:31;38.0;;;32.0;;
21120;SDS011;12519;43.318;21.898;2024-02-04T08:20:08;38.0;;;32.0;;
21120;SDS011;12519;43.318;21.898;2024-02-04T08:24:45;38.0;;;32.0;;
21120;SDS011;12519;43.318;21.898;2024-02-04T08:29:21;42.0;;;36.0;;
21120;SDS011;12519;43.318;21.898;2024-02-04T08:33:57;42.0;;;36.0;;
21120;SDS011;12519;43.318;21.898;2024-02-04T08:38:33;45.0;;;41.0;;
21120;SDS011;12519;43.318;21.898;2024-02-04T08:43:08;45.0;;;41.0;;
21120;SDS011;12519;43.318;21.898;2024-02-04T08:47:54;46.0;;;40.0;;
21120;SDS011;12519;43.318;21.898;2024-02-04T08:52:31;46.0;;;40.0;;
21120;SDS011;12519;43.318;21.898;2024-02-04T08:57:07;48.0;;;39.0;;
21120;SDS011;12519;43.318;21.898;2024-02-04T09:01:43;48.0;;;39.0;;
21120;SDS011;12519;43.318;21.898;2024-02-04T09:06:20;45.0;;;37.0;;
21120;SDS011;12519;43.318;21.898;2024-02-04T09:10:56;45.0;;;37.0;;
21120;SDS011;12519;43.318;21.898;2024-02-04T09:15:33;42.0;;;35.0;;
21120;SDS011;12519;43.318;21.898;2024-02-04T09:20:11;42.0;;;35.0;;
21120;SDS011;12519;43.318;21.898;2024-02-04T09:24:47;42.0;;;35.0;;
21120;SDS011;12519;43.318;21.898;2024-02-04T09:29:23;40.0;;;35.0;;
21120;SDS011;12519;43.318;21.898;2024-02-04T09:33:59;40.0;;;35.0;;
21120;SDS011;12519;43.318;21.898;2024-02-04T09:38:35;38.0;;;35.0;;
21120;SDS011;12519;43.318;21.898;2024-02-04T09:43:13;38.0;;;35.0;;
21120;SDS011;12519;43.318;21.898;2024-02-04T09:47:53;43.0;;;36.0;;
21120;SDS011;12519;43.318;21.898;2024-02-04T09:52:33;43.0;;;36.0;;
21120;SDS011;12519;43.318;21.898;2024-02-04T09:57:25;48.0;;;37.0;;
21120;SDS011;12519;43.318;21.898;2024-02-04T10:02:06;48.0;;;37.0;;
21120;SDS011;12519;43.318;21.898;2024-02-04T10:06:45;66.0;;;52.0;;
21120;SDS011;12519;43.318;21.898;2024-02-04T10:11:22;66.0;;;52.0;;
21120;SDS011;12519;43.318;21.898;2024-02-04T10:15:59;83.0;;;68.0;;
21120;SDS011;12519;43.318;21.898;2024-02-04T10:20:36;83.0;;;68.0;;
21120;SDS011;12519;43.318;21.898;2024-02-04T10:25:13;83.0;;;68.0;;
21120;SDS011;12519;43.318;21.898;2024-02-04T10:29:50;66.0;;;56.0;;
21120;SDS011;12519;43.318;21.898;2024-02-04T10:34:27;66.0;;;56.0;;
21120;SDS011;12519;43.318;21.898;2024-02-04T10:39:04;49.0;;;43.0;;
21120;SDS011;12519;43.318;21.898;2024-02-04T10:43:43;49.0;;;43.0;;
21120;SDS011;12519;43.318;21.898;2024-02-04T10:48:26;44.0;;;38.0;;
21120;SDS011;12519;43.318;21.898;2024-02-04T10:53:14;44.0;;;38.0;;
21120;SDS011;12519;43.318;21.898;2024-02-04T10:57:56;38.0;;;34.0;;
21120;SDS011;12519;43.318;21.898;2024-02-04T11:02:35;38.0;;;34.0;;
21120;SDS011;12519;43.318;21.898;2024-02-04T11:07:14;40.0;;;37.0;;
21120;SDS011;12519;43.318;21.898;2024-02-04T11:11:59;40.0;;;37.0;;
21120;SDS011;12519;43.318;21.898;2024-02-04T11:17:19;43.0;;;40.0;;
21120;SDS011;12519;43.318;21.898;2024-02-04T11:23:10;43.0;;;40.0;;
21120;SDS011;12519;43.318;21.898;2024-02-04T11:28:26;46.0;;;39.0;;
21120;SDS011;12519;43.318;21.898;2024-02-04T11:33:05;46.0;;;39.0;;
21120;SDS011;12519;43.318;21.898;2024-02-04T11:37:43;48.0;;;38.0;;
21120;SDS011;12519;43.318;21.898;2024-02-04T11:42:23;48.0;;;38.0;;
21120;SDS011;12519;43.318;21.898;2024-02-04T11:47:06;48.0;;;38.0;;
21120;SDS011;12519;43.318;21.898;2024-02-04T11:51:46;48.0;;;38.0;;
21120;SDS011;12519;43.318;21.898;2024-02-04T12:10:15;51.0;;;43.0;;
21120;SDS011;12519;43.318;21.898;2024-02-04T12:14:52;51.0;;;43.0;;
21120;SDS011;12519;43.318;21.898;2024-02-04T12:19:28;51.0;;;43.0;;
21120;SDS011;12519;43.318;21.898;2024-02-04T12:24:06;51.0;;;43.0;;
21120;SDS011;12519;43.318;21.898;2024-02-04T12:28:43;46.0;;;40.0;;
21120;SDS011;12519;43.318;21.898;2024-02-04T12:33:20;46.0;;;40.0;;
21120;SDS011;12519;43.318;21.898;2024-02-04T12:37:59;41.0;;;36.0;;
21120;SDS011;12519;43.318;21.898;2024-02-04T12:42:36;41.0;;;36.0;;
21120;SDS011;12519;43.318;21.898;2024-02-04T12:47:14;34.0;;;30.0;;
21120;SDS011;12519;43.318;21.898;2024-02-04T12:52:05;34.0;;;30.0;;
21120;SDS011;12519;43.318;21.898;2024-02-04T12:56:47;27.0;;;23.0;;
21120;SDS011;12519;43.318;21.898;2024-02-04T13:01:30;27.0;;;23.0;;
21120;SDS011;12519;43.318;21.898;2024-02-04T13:06:07;28.0;;;24.0;;
21120;SDS011;12519;43.318;21.898;2024-02-04T13:10:44;28.0;;;24.0;;
21120;SDS011;12519;43.318;21.898;2024-02-04T13:15:36;28.0;;;24.0;;
21120;SDS011;12519;43.318;21.898;2024-02-04T13:20:16;28.0;;;24.0;;
21120;SDS011;12519;43.318;21.898;2024-02-04T13:24:52;28.0;;;24.0;;
21120;SDS011;12519;43.318;21.898;2024-02-04T13:29:28;23.0;;;18.0;;
21120;SDS011;12519;43.318;21.898;2024-02-04T13:34:04;23.0;;;18.0;;
21120;SDS011;12519;43.318;21.898;2024-02-04T13:38:39;18.0;;;13.0;;
21120;SDS011;12519;43.318;21.898;2024-02-04T13:43:16;18.0;;;13.0;;
21120;SDS011;12519;43.318;21.898;2024-02-04T13:47:51;28.0;;;22.0;;
21120;SDS011;12519;43.318;21.898;2024-02-04T13:52:28;28.0;;;22.0;;
21120;SDS011;12519;43.318;21.898;2024-02-04T13:57:05;37.0;;;32.0;;
21120;SDS011;12519;43.318;21.898;2024-02-04T14:01:41;37.0;;;32.0;;
21120;SDS011;12519;43.318;21.898;2024-02-04T14:06:18;32.0;;;27.0;;
21120;SDS011;12519;43.318;21.898;2024-02-04T14:10:54;32.0;;;27.0;;
21120;SDS011;12519;43.318;21.898;2024-02-04T14:15:31;32.0;;;27.0;;
21120;SDS011;12519;43.318;21.898;2024-02-04T14:20:09;26.0;;;22.0;;
21120;SDS011;12519;43.318;21.898;2024-02-04T14:24:46;26.0;;;22.0;;
21120;SDS011;12519;43.318;21.898;2024-02-04T14:29:22;20.0;;;17.0;;
21120;SDS011;12519;43.318;21.898;2024-02-04T14:33:59;20.0;;;17.0;;
21120;SDS011;12519;43.318;21.898;2024-02-04T14:38:35;14.0;;;12.0;;
21120;SDS011;12519;43.318;21.898;2024-02-04T14:43:11;14.0;;;12.0;;
21120;SDS011;12519;43.318;21.898;2024-02-04T14:47:47;13.0;;;12.0;;
21120;SDS011;12519;43.318;21.898;2024-02-04T14:52:24;13.0;;;12.0;;
21120;SDS011;12519;43.318;21.898;2024-02-04T14:57:00;12.0;;;12.0;;
21120;SDS011;12519;43.318;21.898;2024-02-04T15:01:36;12.0;;;12.0;;
21120;SDS011;12519;43.318;21.898;2024-02-04T15:06:12;18.0;;;16.0;;
21120;SDS011;12519;43.318;21.898;2024-02-04T15:10:49;18.0;;;16.0;;
21120;SDS011;12519;43.318;21.898;2024-02-04T15:15:26;18.0;;;16.0;;
21120;SDS011;12519;43.318;21.898;2024-02-04T15:20:07;23.0;;;19.0;;
21120;SDS011;12519;43.318;21.898;2024-02-04T15:24:49;23.0;;;19.0;;
21120;SDS011;12519;43.318;21.898;2024-02-04T15:29:28;39.0;;;34.0;;
21120;SDS011;12519;43.318;21.898;2024-02-04T15:34:13;39.0;;;34.0;;
21120;SDS011;12519;43.318;21.898;2024-02-04T15:38:51;55.0;;;48.0;;
21120;SDS011;12519;43.318;21.898;2024-02-04T15:43:28;55.0;;;48.0;;
21120;SDS011;12519;43.318;21.898;2024-02-04T15:48:06;64.0;;;55.0;;
21120;SDS011;12519;43.318;21.898;2024-02-04T15:52:59;64.0;;;55.0;;
21120;SDS011;12519;43.318;21.898;2024-02-04T15:57:40;73.0;;;62.0;;
21120;SDS011;12519;43.318;21.898;2024-02-04T16:02:26;73.0;;;62.0;;
21120;SDS011;12519;43.318;21.898;2024-02-04T16:07:05;78.0;;;66.0;;
21120;SDS011;12519;43.318;21.898;2024-02-04T16:11:52;78.0;;;66.0;;
21120;SDS011;12519;43.318;21.898;2024-02-04T16:16:45;83.0;;;71.0;;
21120;SDS011;12519;43.318;21.898;2024-02-04T16:21:38;83.0;;;71.0;;
21120;SDS011;12519;43.318;21.898;2024-02-04T16:26:14;83.0;;;71.0;;
21120;SDS011;12519;43.318;21.898;2024-02-04T16:30:50;88.0;;;75.0;;
21120;SDS011;12519;43.318;21.898;2024-02-04T16:35:26;88.0;;;75.0;;
21120;SDS011;12519;43.318;21.898;2024-02-04T16:40:04;93.0;;;79.0;;
21120;SDS011;12519;43.318;21.898;2024-02-04T16:44:46;93.0;;;79.0;;
21120;SDS011;12519;43.318;21.898;2024-02-04T16:49:23;122.0;;;104.0;;
21120;SDS011;12519;43.318;21.898;2024-02-04T16:54:03;122.0;;;104.0;;
21120;SDS011;12519;43.318;21.898;2024-02-04T16:58:39;152.0;;;128.0;;
21120;SDS011;12519;43.318;21.898;2024-02-04T17:03:16;152.0;;;128.0;;
21120;SDS011;12519;43.318;21.898;2024-02-04T17:07:55;133.0;;;110.0;;
21120;SDS011;12519;43.318;21.898;2024-02-04T17:12:34;133.0;;;110.0;;
21120;SDS011;12519;43.318;21.898;2024-02-04T17:17:14;114.0;;;91.0;;
21120;SDS011;12519;43.318;21.898;2024-02-04T17:21:57;114.0;;;91.0;;
21120;SDS011;12519;43.318;21.898;2024-02-04T17:26:41;78.0;;;64.0;;
21120;SDS011;12519;43.318;21.898;2024-02-04T17:31:18;78.0;;;64.0;;
21120;SDS011;12519;43.318;21.898;2024-02-04T17:35:55;78.0;;;64.0;;
21120;SDS011;12519;43.318;21.898;2024-02-04T17:40:30;42.0;;;38.0;;
21120;SDS011;12519;43.318;21.898;2024-02-04T17:45:07;42.0;;;38.0;;
21120;SDS011;12519;43.318;21.898;2024-02-04T17:49:45;54.0;;;46.0;;
21120;SDS011;12519;43.318;21.898;2024-02-04T17:54:22;54.0;;;46.0;;
21120;SDS011;12519;43.318;21.898;2024-02-04T17:58:58;65.0;;;54.0;;
21120;SDS011;12519;43.318;21.898;2024-02-04T18:03:34;65.0;;;54.0;;
21120;SDS011;12519;43.318;21.898;2024-02-04T18:08:10;50.0;;;44.0;;
21120;SDS011;12519;43.318;21.898;2024-02-04T18:12:47;50.0;;;44.0;;
21120;SDS011;12519;43.318;21.898;2024-02-04T18:17:25;36.0;;;33.0;;
21120;SDS011;12519;43.318;21.898;2024-02-04T18:22:02;36.0;;;33.0;;
21120;SDS011;12519;43.318;21.898;2024-02-04T18:26:39;44.0;;;40.0;;
21120;SDS011;12519;43.318;21.898;2024-02-04T18:31:16;44.0;;;40.0;;
21120;SDS011;12519;43.318;21.898;2024-02-04T18:35:54;44.0;;;40.0;;
21120;SDS011;12519;43.318;21.898;2024-02-04T18:40:30;52.0;;;48.0;;
21120;SDS011;12519;43.318;21.898;2024-02-04T18:45:06;52.0;;;48.0;;
21120;SDS011;12519;43.318;21.898;2024-02-04T18:49:43;92.0;;;76.0;;
21120;SDS011;12519;43.318;21.898;2024-02-04T18:54:19;92.0;;;76.0;;
21120;SDS011;12519;43.318;21.898;2024-02-04T18:58:55;133.0;;;105.0;;
21120;SDS011;12519;43.318;21.898;2024-02-04T19:03:31;133.0;;;105.0;;
21120;SDS011;12519;43.318;21.898;2024-02-04T19:08:07;110.0;;;88.0;;
21120;SDS011;12519;43.318;21.898;2024-02-04T19:12:43;110.0;;;88.0;;
21120;SDS011;12519;43.318;21.898;2024-02-04T19:17:19;87.0;;;70.0;;
21120;SDS011;12519;43.318;21.898;2024-02-04T19:21:55;87.0;;;70.0;;
21120;SDS011;12519;43.318;21.898;2024-02-04T19:26:31;87.0;;;70.0;;
21120;SDS011;12519;43.318;21.898;2024-02-04T19:31:08;109.0;;;90.0;;
21120;SDS011;12519;43.318;21.898;2024-02-04T19:35:45;109.0;;;90.0;;
21120;SDS011;12519;43.318;21.898;2024-02-04T19:40:22;131.0;;;110.0;;
21120;SDS011;12519;43.318;21.898;2024-02-04T19:44:59;131.0;;;110.0;;
21120;SDS011;12519;43.318;21.898;2024-02-04T19:49:35;148.0;;;125.0;;
21120;SDS011;12519;43.318;21.898;2024-02-04T19:54:11;148.0;;;125.0;;
21120;SDS011;12519;43.318;21.898;2024-02-04T19:58:47;164.0;;;140.0;;
21120;SDS011;12519;43.318;21.898;2024-02-04T20:03:23;164.0;;;140.0;;
21120;SDS011;12519;43.318;21.898;2024-02-04T20:07:59;166.0;;;138.0;;
21120;SDS011;12519;43.318;21.898;2024-02-04T20:12:35;166.0;;;138.0;;
21120;SDS011;12519;43.318;21.898;2024-02-04T20:17:11;167.0;;;136.0;;
21120;SDS011;12519;43.318;21.898;2024-02-04T20:21:47;167.0;;;136.0;;
21120;SDS011;12519;43.318;21.898;2024-02-04T20:26:23;167.0;;;136.0;;
21120;SDS011;12519;43.318;21.898;2024-02-04T20:31:00;156.0;;;131.0;;
21120;SDS011;12519;43.318;21.898;2024-02-04T20:35:36;156.0;;;131.0;;
21120;SDS011;12519;43.318;21.898;2024-02-04T20:40:13;146.0;;;126.0;;
21120;SDS011;12519;43.318;21.898;2024-02-04T20:44:50;146.0;;;126.0;;
21120;SDS011;12519;43.318;21.898;2024-02-04T20:49:26;130.0;;;112.0;;
21120;SDS011;12519;43.318;21.898;2024-02-04T20:54:03;130.0;;;112.0;;
21120;SDS011;12519;43.318;21.898;2024-02-04T20:58:42;114.0;;;98.0;;
21120;SDS011;12519;43.318;21.898;2024-02-04T21:03:19;114.0;;;98.0;;
21120;SDS011;12519;43.318;21.898;2024-02-04T21:07:55;108.0;;;91.0;;
21120;SDS011;12519;43.318;21.898;2024-02-04T21:12:32;108.0;;;91.0;;
21120;SDS011;12519;43.318;21.898;2024-02-04T21:17:09;102.0;;;84.0;;
21120;SDS011;12519;43.318;21.898;2024-02-04T21:21:45;102.0;;;84.0;;
21120;SDS011;12519;43.318;21.898;2024-02-04T21:26:21;102.0;;;84.0;;
21120;SDS011;12519;43.318;21.898;2024-02-04T21:30:57;101.0;;;84.0;;
21120;SDS011;12519;43.318;21.898;2024-02-04T21:35:33;101.0;;;84.0;;
21120;SDS011;12519;43.318;21.898;2024-02-04T21:40:11;100.0;;;85.0;;
21120;SDS011;12519;43.318;21.898;2024-02-04T21:44:48;100.0;;;85.0;;
21120;SDS011;12519;43.318;21.898;2024-02-04T21:49:24;103.0;;;88.0;;
21120;SDS011;12519;43.318;21.898;2024-02-04T21:54:00;103.0;;;88.0;;
21120;SDS011;12519;43.318;21.898;2024-02-04T21:58:37;106.0;;;92.0;;
21120;SDS011;12519;43.318;21.898;2024-02-04T22:03:13;106.0;;;92.0;;
21120;SDS011;12519;43.318;21.898;2024-02-04T22:07:49;106.0;;;90.0;;
21120;SDS011;12519;43.318;21.898;2024-02-04T22:12:26;106.0;;;90.0;;
21120;SDS011;12519;43.318;21.898;2024-02-04T22:17:02;106.0;;;90.0;;
21120;SDS011;12519;43.318;21.898;2024-02-04T22:21:39;107.0;;;88.0;;
21120;SDS011;12519;43.318;21.898;2024-02-04T22:26:16;107.0;;;88.0;;
21120;SDS011;12519;43.318;21.898;2024-02-04T22:30:52;118.0;;;98.0;;
21120;SDS011;12519;43.318;21.898;2024-02-04T22:35:28;118.0;;;98.0;;
21120;SDS011;12519;43.318;21.898;2024-02-04T22:40:06;128.0;;;108.0;;
21120;SDS011;12519;43.318;21.898;2024-02-04T22:44:45;128.0;;;108.0;;
21120;SDS011;12519;43.318;21.898;2024-02-04T22:49:21;122.0;;;104.0;;
21120;SDS011;12519;43.318;21.898;2024-02-04T22:53:57;122.0;;;104.0;;
21120;SDS011;12519;43.318;21.898;2024-02-04T22:58:33;117.0;;;101.0;;
21120;SDS011;12519;43.318;21.898;2024-02-04T23:03:10;117.0;;;101.0;;
21120;SDS011;12519;43.318;21.898;2024-02-04T23:07:47;140.0;;;120.0;;
21120;SDS011;12519;43.318;21.898;2024-02-04T23:12:23;140.0;;;120.0;;
21120;SDS011;12519;43.318;21.898;2024-02-04T23:17:00;140.0;;;120.0;;
21120;SDS011;12519;43.318;21.898;2024-02-04T23:21:36;164.0;;;140.0;;
21120;SDS011;12519;43.318;21.898;2024-02-04T23:26:14;164.0;;;140.0;;
21120;SDS011;12519;43.318;21.898;2024-02-04T23:30:52;148.0;;;126.0;;
21120;SDS011;12519;43.318;21.898;2024-02-04T23:35:28;148.0;;;126.0;;
21120;SDS011;12519;43.318;21.898;2024-02-04T23:40:07;133.0;;;112.0;;
21120;SDS011;12519;43.318;21.898;2024-02-04T23:44:48;133.0;;;112.0;;
21120;SDS011;12519;43.318;21.898;2024-02-04T23:49:25;130.0;;;108.0;;
21120;SDS011;12519;43.318;21.898;2024-02-04T23:54:02;130.0;;;108.0;;
21120;SDS011;12519;43.318;21.898;2024-02-04T23:58:38;127.0;;;104.0;;
